Etusivu
METAR-TAF:

METAR-TAF

Lentoasemat :

Lydd, Englanti

Leveyspiiri: 50-57N, Pituuspiiri: 000-56E, korkeus merenpinnasta: 3 m

Tämänhetkinen sää

Tämä raportti tehtiin 27 minuuttia sitten, kello 00.20 UTC
Tuuli 10 kn lounaasta
Lämpötila 7°C
Kosteus 93%
Ilmanpaine 1020 hPa
Näkyvyys 10 km tai enemmän

METAR: EGMD 200020Z AUTO 23010KT 9999 NCD 07/06 Q1020

Aika: 00:47 (00:47 UTC)

Sääennuste

Tämä raportti tehtiin 1 tunti ja 39 minuuttia sitten, kello 23.08 UTC
Ennuste voimassa 20. päivästä klo 00 UTC - 20. päivään klo 09 UTC
Tuuli 11 kn lounaasta
Näkyvyys 10 km tai enemmän
Muutamia pilviä 2000 ft:n korkeudessa
Ajoittain
20. päivästä klo 00 UTC - 20. päivään klo 09 UTC
Hajonneita pilviä 900 ft:n korkeudessa
Todennäköisyys 40%
20. päivästä klo 00 UTC - 20. päivään klo 06 UTC
Näkyvyys: 8000 m

TAF: EGMD 192308Z 2000/2009 22011KT 9999 FEW020 TEMPO 2000/2009 BKN009 PROB40 2000/2006 8000

Säähavainnot ja -ennusteet yli 4000 lentoasemalta (METAR- ja TAF-raportit).

Käytössä olevat sääasemat on merkitty karttaan keltaisilla ja punaisilla pisteillä.

Aseta hiiri pisteen päälle nähdäksesi sääaseman nimen.

Klikkaa sitten nähdäksesi säähavainnot ja -ennusteet.

Kartan vaihtaminen: klikkaa mustalla rastilla varustettuja vihreitä pisteitä, niin voit zoomata sisään; viivalla varustettua vihreää pistettä, niin voit zoomata ulos tai vihreitä nuolia, niin pääset viereisille kartoille.


METAR-TAF: